createdAt,value
2017-04-24T00:00:27.141Z,1.70
2017-04-24T00:01:27.634Z,1.70
2017-04-24T00:02:27.457Z,1.70
2017-04-24T00:03:27.325Z,1.70
2017-04-24T00:04:27.065Z,1.70
2017-04-24T00:05:27.029Z,1.60
2017-04-24T00:06:26.813Z,1.50
2017-04-24T00:07:26.649Z,1.30
2017-04-24T00:08:26.681Z,1.20
2017-04-24T00:09:26.453Z,1.00
2017-04-24T00:10:26.217Z,1.00
2017-04-24T00:11:25.993Z,0.90
2017-04-24T00:12:25.805Z,0.90
2017-04-24T00:13:26.737Z,0.90
2017-04-24T00:14:27.274Z,0.90
2017-04-24T00:15:27.045Z,0.90
2017-04-24T00:16:27.546Z,0.80
2017-04-24T00:17:27.381Z,0.80
2017-04-24T00:18:27.945Z,0.80
2017-04-24T00:19:27.857Z,0.80
2017-04-24T00:20:27.636Z,0.90
2017-04-24T00:21:27.389Z,0.90
2017-04-24T00:22:27.989Z,0.90
2017-04-24T00:23:27.770Z,0.80
2017-04-24T00:24:27.565Z,0.80
2017-04-24T00:25:27.329Z,0.80
2017-04-24T00:26:27.809Z,0.80
2017-04-24T00:27:27.581Z,0.80
2017-04-24T00:28:27.489Z,0.80
2017-04-24T00:29:28.005Z,0.70
2017-04-24T00:30:27.752Z,0.80
2017-04-24T00:31:28.621Z,0.80
2017-04-24T00:32:28.424Z,0.80
2017-04-24T00:33:28.206Z,0.80
2017-04-24T00:34:28.176Z,0.80
2017-04-24T00:35:28.790Z,0.90
2017-04-24T00:36:28.561Z,0.90
2017-04-24T00:37:28.345Z,1.00
2017-04-24T00:38:28.180Z,1.00
2017-04-24T00:39:28.268Z,1.10
2017-04-24T00:40:28.048Z,1.20
2017-04-24T00:41:27.920Z,1.10
2017-04-24T00:42:27.709Z,1.10
2017-04-24T00:43:28.709Z,1.10
2017-04-24T00:44:28.920Z,1.10
2017-04-24T00:45:28.673Z,1.00
2017-04-24T00:46:29.192Z,1.00
2017-04-24T00:47:29.716Z,0.90
2017-04-24T00:48:30.276Z,0.90
2017-04-24T00:49:30.101Z,0.90
2017-04-24T00:50:30.353Z,0.90
2017-04-24T00:51:30.121Z,0.90
2017-04-24T00:52:29.948Z,1.00
2017-04-24T00:53:30.504Z,1.00
2017-04-24T00:54:31.136Z,1.00
2017-04-24T00:55:30.924Z,1.00
2017-04-24T00:56:30.860Z,1.10
2017-04-24T00:57:30.644Z,1.10
2017-04-24T00:58:30.449Z,1.00
2017-04-24T00:59:30.457Z,1.00
2017-04-24T01:00:30.220Z,0.90
2017-04-24T01:01:30.836Z,0.80
2017-04-24T01:02:31.349Z,0.60
2017-04-24T01:03:31.880Z,0.60
2017-04-24T01:04:31.632Z,0.60
2017-04-24T01:05:31.364Z,0.50
2017-04-24T01:06:31.896Z,0.20
2017-04-24T01:07:31.672Z,0.10
2017-04-24T01:08:31.457Z,0.10
2017-04-24T01:09:31.244Z,0.20
2017-04-24T01:10:31.032Z,0.20
2017-04-24T01:11:30.812Z,0.30
2017-04-24T01:12:30.592Z,0.20
2017-04-24T01:13:30.860Z,0.30
2017-04-24T01:14:30.619Z,0.40
2017-04-24T01:15:31.148Z,0.40
2017-04-24T01:16:30.932Z,0.40
2017-04-24T01:17:31.453Z,0.40
2017-04-24T01:18:31.600Z,0.50
2017-04-24T01:19:31.348Z,0.50
2017-04-24T01:20:31.876Z,0.60
2017-04-24T01:21:32.360Z,0.60
2017-04-24T01:22:32.340Z,0.60
2017-04-24T01:23:32.136Z,0.70
2017-04-24T01:24:31.932Z,0.70
2017-04-24T01:25:31.696Z,0.80
2017-04-24T01:26:32.262Z,0.80
2017-04-24T01:27:32.029Z,0.70
2017-04-24T01:28:32.612Z,0.50
2017-04-24T01:29:32.568Z,0.60
2017-04-24T01:30:32.392Z,0.60
2017-04-24T01:31:32.893Z,0.60
2017-04-24T01:32:32.661Z,0.70
2017-04-24T01:33:33.244Z,0.70
2017-04-24T01:34:33.220Z,0.70
2017-04-24T01:35:33.012Z,0.60
2017-04-24T01:36:32.775Z,0.60
2017-04-24T01:37:32.516Z,0.60
2017-04-24T01:38:32.300Z,0.60
2017-04-24T01:39:32.892Z,0.50
2017-04-24T01:40:32.692Z,0.60
2017-04-24T01:41:32.451Z,0.70
2017-04-24T01:42:32.239Z,0.70
2017-04-24T01:43:31.973Z,0.70
2017-04-24T01:44:31.735Z,0.60
2017-04-24T01:45:32.300Z,0.60
2017-04-24T01:46:32.080Z,0.70
2017-04-24T01:47:31.890Z,0.70
2017-04-24T01:48:31.607Z,0.70
2017-04-24T01:49:31.379Z,0.70
2017-04-24T01:50:31.156Z,0.70
2017-04-24T01:51:30.972Z,0.80
2017-04-24T01:52:30.760Z,0.80
2017-04-24T01:53:31.273Z,0.80
2017-04-24T01:54:31.776Z,0.80
2017-04-24T01:55:32.356Z,0.70
2017-04-24T01:56:32.148Z,0.60
2017-04-24T01:57:31.943Z,0.60
2017-04-24T01:58:31.761Z,0.70
2017-04-24T01:59:31.531Z,0.70
2017-04-24T02:00:31.331Z,0.70
2017-04-24T02:01:31.104Z,0.70
2017-04-24T02:02:31.760Z,0.60
2017-04-24T02:03:31.688Z,0.60
2017-04-24T02:04:31.491Z,0.60
2017-04-24T02:05:31.276Z,0.60
2017-04-24T02:06:31.119Z,0.60
2017-04-24T02:08:30.953Z,0.50
2017-04-24T02:09:32.000Z,0.40
2017-04-24T02:10:31.755Z,0.40
2017-04-24T02:11:31.524Z,0.50
2017-04-24T02:12:31.312Z,0.50
2017-04-24T02:13:31.152Z,0.50
2017-04-24T02:14:31.039Z,0.50
2017-04-24T02:15:31.503Z,0.50
2017-04-24T02:16:31.284Z,0.40
2017-04-24T02:17:31.107Z,0.30
2017-04-24T02:18:31.680Z,0.30
2017-04-24T02:19:31.403Z,0.30
2017-04-24T02:20:31.219Z,0.20
2017-04-24T02:21:31.028Z,0.20
2017-04-24T02:22:30.835Z,0.20
2017-04-24T02:23:31.392Z,0.20
2017-04-24T02:24:31.183Z,0.20
2017-04-24T02:25:30.995Z,0.20
2017-04-24T02:26:30.755Z,0.20
2017-04-24T02:27:31.327Z,0.20
2017-04-24T02:28:31.079Z,0.20
2017-04-24T02:29:31.571Z,0.10
2017-04-24T02:30:31.356Z,0.10
2017-04-24T02:31:31.139Z,0.10
2017-04-24T02:32:30.931Z,0.10
2017-04-24T02:33:30.751Z,0.20
2017-04-24T02:34:30.544Z,0.20
2017-04-24T02:35:30.320Z,0.20
2017-04-24T02:36:30.832Z,0.20
2017-04-24T02:37:31.381Z,0.20
2017-04-24T02:38:31.168Z,0.30
2017-04-24T02:39:30.987Z,0.30
2017-04-24T02:40:30.775Z,0.40
2017-04-24T02:41:30.570Z,0.50
2017-04-24T02:42:30.443Z,0.40
2017-04-24T02:43:30.224Z,0.50
2017-04-24T02:44:30.316Z,0.50
2017-04-24T02:45:30.059Z,0.50
2017-04-24T02:46:31.099Z,0.50
2017-04-24T02:47:31.611Z,0.50
2017-04-24T02:48:32.131Z,0.50
2017-04-24T02:49:32.779Z,0.50
2017-04-24T02:50:32.699Z,0.50
2017-04-24T02:51:32.511Z,0.50
2017-04-24T02:52:32.280Z,0.50
2017-04-24T02:53:32.046Z,0.50
2017-04-24T02:54:31.827Z,0.40
2017-04-24T02:55:33.091Z,0.30
2017-04-24T02:56:32.863Z,0.30
2017-04-24T02:57:32.687Z,0.20
2017-04-24T02:58:32.555Z,0.20
2017-04-24T02:59:33.023Z,0.20
2017-04-24T03:00:33.562Z,0.20
2017-04-24T03:01:33.327Z,0.20
2017-04-24T03:02:33.077Z,0.20
2017-04-24T03:03:33.054Z,0.30
2017-04-24T03:04:33.923Z,0.30
2017-04-24T03:05:33.686Z,0.30
2017-04-24T03:06:34.255Z,0.30
2017-04-24T03:07:34.019Z,0.30
2017-04-24T03:08:33.799Z,0.30
2017-04-24T03:09:34.299Z,0.20
2017-04-24T03:10:34.062Z,0.20
2017-04-24T03:11:33.823Z,0.10
2017-04-24T03:12:34.367Z,0.10
2017-04-24T03:13:34.207Z,0.00
2017-04-24T03:14:33.975Z,0.00
2017-04-24T03:15:33.718Z,-0.10
2017-04-24T03:16:33.442Z,0.00
2017-04-24T03:17:33.956Z,0.00
2017-04-24T03:18:34.459Z,-0.10
2017-04-24T03:19:34.219Z,-0.10
2017-04-24T03:20:33.990Z,-0.10
2017-04-24T03:21:33.747Z,0.00
2017-04-24T03:22:33.519Z,-0.10
2017-04-24T03:23:33.334Z,-0.20
2017-04-24T03:24:33.150Z,-0.20
2017-04-24T03:25:32.930Z,-0.10
2017-04-24T03:26:32.674Z,-0.10
2017-04-24T03:27:33.220Z,0.00
2017-04-24T03:28:32.994Z,0.00
2017-04-24T03:29:32.750Z,0.00
2017-04-24T03:30:32.514Z,0.00
2017-04-24T03:31:33.050Z,0.00
2017-04-24T03:32:32.846Z,0.00
2017-04-24T03:33:32.595Z,0.00
2017-04-24T03:34:32.378Z,0.00
2017-04-24T03:35:32.442Z,0.10
2017-04-24T03:36:32.958Z,0.10
2017-04-24T03:37:33.494Z,0.10
2017-04-24T03:38:33.267Z,0.00
2017-04-24T03:39:33.070Z,0.00
2017-04-24T03:40:33.582Z,0.00
2017-04-24T03:41:34.063Z,0.00
2017-04-24T03:42:33.807Z,0.00
2017-04-24T03:43:34.336Z,0.00
2017-04-24T03:44:34.866Z,-0.10
2017-04-24T03:45:34.619Z,-0.10
2017-04-24T03:46:34.382Z,-0.10
2017-04-24T03:47:34.166Z,-0.20
2017-04-24T03:48:33.967Z,-0.20
2017-04-24T03:49:33.726Z,-0.20
2017-04-24T03:50:33.498Z,-0.20
2017-04-24T03:51:33.258Z,-0.20
2017-04-24T03:52:33.802Z,-0.20
2017-04-24T03:53:33.570Z,-0.10
2017-04-24T03:54:34.094Z,-0.20
2017-04-24T03:55:34.742Z,-0.20
2017-04-24T03:56:35.270Z,-0.10
2017-04-24T03:57:35.078Z,-0.10
2017-04-24T03:58:34.882Z,-0.10
2017-04-24T03:59:35.294Z,-0.10
2017-04-24T04:00:35.149Z,-0.10
2017-04-24T04:01:34.922Z,0.00
2017-04-24T04:02:34.706Z,-0.10
2017-04-24T04:03:34.555Z,0.00
2017-04-24T04:04:35.070Z,0.00
2017-04-24T04:05:34.858Z,0.00
2017-04-24T04:06:34.665Z,-0.10
2017-04-24T04:07:34.450Z,-0.10
2017-04-24T04:08:34.235Z,-0.30
2017-04-24T04:09:34.730Z,-0.20
2017-04-24T04:10:34.522Z,-0.20
2017-04-24T04:11:34.390Z,-0.20
2017-04-24T04:12:34.262Z,-0.30
2017-04-24T04:13:34.082Z,-0.30
2017-04-24T04:14:34.202Z,-0.30
2017-04-24T04:15:33.998Z,-0.30
2017-04-24T04:16:33.878Z,-0.30
2017-04-24T04:17:34.398Z,-0.30
2017-04-24T04:18:34.203Z,-0.20
2017-04-24T04:19:33.998Z,-0.20
2017-04-24T04:20:33.773Z,-0.10
2017-04-24T04:21:33.586Z,-0.10
2017-04-24T04:22:33.374Z,-0.10
2017-04-24T04:23:33.199Z,-0.10
2017-04-24T04:24:33.010Z,0.00
2017-04-24T04:25:33.586Z,0.00
2017-04-24T04:26:33.385Z,-0.10
2017-04-24T04:27:33.962Z,-0.10
2017-04-24T04:28:33.682Z,0.00
2017-04-24T04:29:33.454Z,0.10
2017-04-24T04:30:33.250Z,0.00
2017-04-24T04:31:33.001Z,0.00
2017-04-24T04:32:33.506Z,0.00
2017-04-24T04:33:33.505Z,0.00
2017-04-24T04:34:33.258Z,0.00
2017-04-24T04:35:33.010Z,0.00
2017-04-24T04:36:32.813Z,-0.10
2017-04-24T04:37:32.606Z,-0.10
2017-04-24T04:38:32.361Z,-0.20
2017-04-24T04:39:32.133Z,-0.30
2017-04-24T04:40:32.705Z,-0.40
2017-04-24T04:41:32.597Z,-0.30
2017-04-24T04:42:32.345Z,-0.40
2017-04-24T04:43:32.094Z,-0.60
2017-04-24T04:44:31.875Z,-0.60
2017-04-24T04:45:31.709Z,-0.50
2017-04-24T04:46:31.482Z,-0.40
2017-04-24T04:47:31.326Z,-0.40
2017-04-24T04:48:31.092Z,-0.30
2017-04-24T04:49:30.850Z,-0.20
2017-04-24T04:50:30.601Z,-0.20
2017-04-24T04:51:30.377Z,-0.20
2017-04-24T04:52:30.186Z,-0.10
2017-04-24T04:53:30.025Z,-0.20
2017-04-24T04:54:29.803Z,-0.30
2017-04-24T04:55:29.578Z,-0.40
2017-04-24T04:56:29.389Z,-0.40
2017-04-24T04:57:29.162Z,-0.40
2017-04-24T04:58:29.754Z,-0.40
2017-04-24T04:59:29.554Z,-0.20
2017-04-24T05:00:29.309Z,-0.10
2017-04-24T05:01:29.837Z,0.00
2017-04-24T05:02:29.829Z,0.10
2017-04-24T05:03:29.617Z,0.10
2017-04-24T05:04:29.414Z,0.20
2017-04-24T05:05:29.189Z,0.20
2017-04-24T05:06:28.978Z,0.10
2017-04-24T05:07:28.769Z,-0.10
2017-04-24T05:08:28.533Z,-0.10
2017-04-24T05:09:29.057Z,0.00
2017-04-24T05:10:29.569Z,0.10
2017-04-24T05:11:30.085Z,0.20
2017-04-24T05:12:31.430Z,0.10
2017-04-24T05:13:31.917Z,0.20
2017-04-24T05:14:31.729Z,0.20
2017-04-24T05:15:31.493Z,0.10
2017-04-24T05:16:31.253Z,0.10
2017-04-24T05:17:31.801Z,0.00
2017-04-24T05:18:31.581Z,0.10
2017-04-24T05:19:31.393Z,0.10
2017-04-24T05:20:31.165Z,0.10
2017-04-24T05:21:31.709Z,0.10
2017-04-24T05:22:31.505Z,0.20
2017-04-24T05:23:31.270Z,0.20
2017-04-24T05:24:31.081Z,0.20
2017-04-24T05:25:30.849Z,0.20
2017-04-24T05:26:30.661Z,0.30
2017-04-24T05:27:30.421Z,0.50
2017-04-24T05:28:30.241Z,0.60
2017-04-24T05:29:30.069Z,0.60
2017-04-24T05:30:29.821Z,0.70
2017-04-24T05:31:29.597Z,0.70
2017-04-24T05:32:30.449Z,0.80
2017-04-24T05:33:31.233Z,0.80
2017-04-24T05:35:30.989Z,0.80
2017-04-24T05:36:30.753Z,0.80
2017-04-24T05:37:31.241Z,0.90
2017-04-24T05:38:31.009Z,1.00
2017-04-24T05:39:30.805Z,0.90
2017-04-24T05:40:30.581Z,0.90
2017-04-24T05:41:31.169Z,0.90
2017-04-24T05:42:30.941Z,1.10
2017-04-24T05:43:30.729Z,1.20
2017-04-24T05:44:30.562Z,1.30
2017-04-24T05:45:30.393Z,1.40
2017-04-24T05:46:30.188Z,1.50
2017-04-24T05:47:29.937Z,1.50
2017-04-24T05:48:29.746Z,1.50
2017-04-24T05:49:29.517Z,1.50
2017-04-24T05:50:30.053Z,1.50
2017-04-24T05:51:29.801Z,1.60
2017-04-24T05:52:29.568Z,1.70
2017-04-24T05:53:29.352Z,1.70
2017-04-24T05:54:29.121Z,1.70
2017-04-24T05:55:28.901Z,1.70
2017-04-24T05:56:28.701Z,1.70
2017-04-24T05:57:29.108Z,1.60
2017-04-24T05:58:28.857Z,1.70
2017-04-24T05:59:29.353Z,1.80
2017-04-24T06:00:29.109Z,1.80
2017-04-24T06:01:28.888Z,1.90
2017-04-24T06:02:29.412Z,1.90
2017-04-24T06:03:29.468Z,1.90
2017-04-24T06:04:29.209Z,2.00
2017-04-24T06:05:29.045Z,2.20
2017-04-24T06:06:28.897Z,2.40
2017-04-24T06:07:29.441Z,2.30
2017-04-24T06:08:29.257Z,2.50
2017-04-24T06:09:29.061Z,2.50
2017-04-24T06:10:28.824Z,2.50
2017-04-24T06:11:29.501Z,2.70
2017-04-24T06:12:29.972Z,2.80
2017-04-24T06:13:30.561Z,2.90
2017-04-24T06:14:30.360Z,2.90
2017-04-24T06:15:30.952Z,2.90
2017-04-24T06:16:30.780Z,3.00
2017-04-24T06:17:30.590Z,3.20
2017-04-24T06:18:30.380Z,3.20
2017-04-24T06:19:30.148Z,3.10
2017-04-24T06:20:29.936Z,3.30
2017-04-24T06:21:29.740Z,3.30
2017-04-24T06:22:29.537Z,3.40
2017-04-24T06:23:30.092Z,3.40
2017-04-24T06:24:29.864Z,3.50
2017-04-24T06:25:29.633Z,3.60
2017-04-24T06:26:29.501Z,3.60
2017-04-24T06:27:29.300Z,3.50
2017-04-24T06:28:29.084Z,3.60
2017-04-24T06:29:28.861Z,3.60
2017-04-24T06:30:29.412Z,3.50
2017-04-24T06:31:29.180Z,3.60
2017-04-24T06:32:29.840Z,3.70
2017-04-24T06:33:30.521Z,3.70
2017-04-24T06:34:31.031Z,3.80
2017-04-24T06:35:32.052Z,3.90
2017-04-24T06:36:32.944Z,4.10
2017-04-24T06:37:32.752Z,4.30
2017-04-24T06:38:38.552Z,4.50
2017-04-24T06:39:44.844Z,4.60
2017-04-24T06:40:44.640Z,4.70
2017-04-24T06:41:44.420Z,4.70
2017-04-24T06:42:44.372Z,4.60
2017-04-24T06:43:44.125Z,4.60
2017-04-24T06:44:44.617Z,4.50
2017-04-24T06:45:45.092Z,4.40
2017-04-24T06:46:44.868Z,4.60
2017-04-24T06:47:44.643Z,4.60
2017-04-24T06:48:45.208Z,4.60
2017-04-24T06:49:45.027Z,4.70
2017-04-24T06:50:44.775Z,4.90
2017-04-24T06:51:44.512Z,4.90
2017-04-24T06:52:44.304Z,4.90
2017-04-24T06:53:44.215Z,4.90
2017-04-24T06:54:43.960Z,5.20
2017-04-24T06:55:43.724Z,5.30
2017-04-24T06:56:43.527Z,5.40
2017-04-24T06:57:43.280Z,5.40
2017-04-24T06:58:43.035Z,5.50
2017-04-24T06:59:43.671Z,5.60
2017-04-24T07:00:43.471Z,5.80
2017-04-24T07:01:43.272Z,6.00
2017-04-24T07:02:46.180Z,6.00
2017-04-24T07:03:46.017Z,6.20
2017-04-24T07:04:45.919Z,6.40
2017-04-24T07:05:46.384Z,6.50
2017-04-24T07:06:46.880Z,6.50
2017-04-24T07:07:46.815Z,6.50
2017-04-24T07:08:47.340Z,6.50
2017-04-24T07:09:47.828Z,6.60
2017-04-24T07:10:47.707Z,6.60
2017-04-24T07:11:47.451Z,6.60
2017-04-24T07:12:47.956Z,6.60
2017-04-24T07:13:47.772Z,6.70
2017-04-24T07:14:47.860Z,6.90
2017-04-24T07:15:47.639Z,7.20
2017-04-24T07:16:48.351Z,7.50
2017-04-24T07:17:48.607Z,7.40
2017-04-24T07:18:48.471Z,7.30
2017-04-24T07:19:49.232Z,7.40
2017-04-24T07:20:48.932Z,7.40
2017-04-24T07:21:49.103Z,7.60
2017-04-24T07:22:49.723Z,7.80
2017-04-24T07:23:50.275Z,7.80
2017-04-24T07:24:50.072Z,7.60
2017-04-24T07:25:49.825Z,7.80
2017-04-24T07:26:49.567Z,7.90
2017-04-24T07:27:49.876Z,8.10
2017-04-24T07:28:49.692Z,8.10
2017-04-24T07:29:49.483Z,8.10
2017-04-24T07:30:49.283Z,8.20
2017-04-24T07:31:49.067Z,8.40
2017-04-24T07:32:49.523Z,8.40
2017-04-24T07:33:49.388Z,8.50
2017-04-24T07:34:49.724Z,8.60
2017-04-24T07:35:51.344Z,8.40
2017-04-24T07:36:51.179Z,8.50
2017-04-24T07:37:50.963Z,8.20
2017-04-24T07:38:50.784Z,8.30
2017-04-24T07:39:50.587Z,8.70
2017-04-24T07:40:50.675Z,9.10
2017-04-24T07:41:50.487Z,8.90
2017-04-24T07:42:50.263Z,8.70
2017-04-24T07:43:50.116Z,8.40
2017-04-24T07:45:50.203Z,8.70
2017-04-24T07:46:49.967Z,8.80
2017-04-24T07:47:49.715Z,8.90
2017-04-24T07:48:49.492Z,8.90
2017-04-24T07:49:49.323Z,8.80
2017-04-24T07:50:49.066Z,8.80
2017-04-24T07:51:49.495Z,8.70
2017-04-24T07:52:49.976Z,8.80
2017-04-24T07:53:50.527Z,8.80
2017-04-24T07:54:50.463Z,8.60
2017-04-24T07:55:50.320Z,8.60
2017-04-24T07:56:50.106Z,8.60
2017-04-24T07:57:50.771Z,8.80
2017-04-24T07:58:50.595Z,8.90
2017-04-24T07:59:51.018Z,8.70
2017-04-24T08:00:50.867Z,8.60
2017-04-24T08:01:50.659Z,8.70
2017-04-24T08:02:51.239Z,8.80
2017-04-24T08:03:51.224Z,8.80
2017-04-24T08:04:51.091Z,8.90
2017-04-24T08:05:50.847Z,9.00
2017-04-24T08:06:50.621Z,9.00
2017-04-24T08:07:51.243Z,9.30
2017-04-24T08:09:52.579Z,9.20
2017-04-24T08:10:53.139Z,9.10
2017-04-24T08:11:53.147Z,9.10
2017-04-24T08:12:52.895Z,8.90
2017-04-24T08:13:52.842Z,9.00
2017-04-24T08:14:52.696Z,9.20
2017-04-24T08:15:53.155Z,9.10
2017-04-24T08:16:52.923Z,9.40
2017-04-24T08:17:52.699Z,9.20
2017-04-24T08:18:52.558Z,9.10
2017-04-24T08:19:52.514Z,9.10
2017-04-24T08:20:52.287Z,9.00
2017-04-24T08:21:53.107Z,9.00
2017-04-24T08:22:53.191Z,8.90
2017-04-24T08:23:53.015Z,9.10
2017-04-24T08:24:52.763Z,9.00
2017-04-24T08:25:52.574Z,9.30
2017-04-24T08:26:52.366Z,9.50
2017-04-24T08:27:52.211Z,9.60
2017-04-24T08:28:52.098Z,9.70
2017-04-24T08:29:52.658Z,9.50
2017-04-24T08:30:52.519Z,9.30
2017-04-24T08:31:52.310Z,9.40
2017-04-24T08:32:52.123Z,9.40
2017-04-24T08:33:51.910Z,9.70
2017-04-24T08:34:52.310Z,9.70
2017-04-24T08:35:52.214Z,9.70
2017-04-24T08:36:52.044Z,9.80
2017-04-24T08:37:51.918Z,9.60
2017-04-24T08:38:51.713Z,9.60
2017-04-24T08:39:52.274Z,9.60
2017-04-24T08:40:52.799Z,9.70
2017-04-24T08:41:52.994Z,9.90
2017-04-24T08:42:52.803Z,10.00
2017-04-24T08:43:52.562Z,10.00
2017-04-24T08:44:53.043Z,9.90
2017-04-24T08:45:52.822Z,9.80
2017-04-24T08:46:52.694Z,9.90
2017-04-24T08:47:52.515Z,10.00
2017-04-24T08:48:52.394Z,10.10
2017-04-24T08:49:52.174Z,10.10
2017-04-24T08:50:51.931Z,10.20
2017-04-24T08:51:51.646Z,10.40
2017-04-24T08:52:51.396Z,10.20
2017-04-24T08:53:52.654Z,10.20
2017-04-24T08:54:52.414Z,9.90
2017-04-24T08:55:52.634Z,9.80
2017-04-24T08:56:53.102Z,9.70
2017-04-24T08:57:52.850Z,9.90
2017-04-24T08:58:53.394Z,9.90
2017-04-24T08:59:53.159Z,10.00
2017-04-24T09:00:52.942Z,9.90
2017-04-24T09:01:52.801Z,9.90
2017-04-24T09:02:52.562Z,10.10
2017-04-24T09:03:53.238Z,10.20
2017-04-24T09:04:53.318Z,10.00
2017-04-24T09:05:53.850Z,9.90
2017-04-24T09:06:53.613Z,10.10
2017-04-24T09:07:53.365Z,10.20
2017-04-24T09:08:53.074Z,10.30
2017-04-24T09:09:52.902Z,10.30
2017-04-24T09:10:53.093Z,10.40
2017-04-24T09:11:52.866Z,10.70
2017-04-24T09:12:52.630Z,10.30
2017-04-24T09:13:53.158Z,10.20
2017-04-24T09:15:52.901Z,10.60
2017-04-24T09:16:52.685Z,10.60
2017-04-24T09:17:52.530Z,10.50
2017-04-24T09:18:52.322Z,9.90
2017-04-24T09:19:52.158Z,9.70
2017-04-24T09:20:52.022Z,10.00
2017-04-24T09:21:52.377Z,10.10
2017-04-24T09:22:52.145Z,10.30
2017-04-24T09:23:51.919Z,10.30
2017-04-24T09:24:51.769Z,10.60
2017-04-24T09:25:51.549Z,10.80
2017-04-24T09:26:51.370Z,10.80
2017-04-24T09:27:51.922Z,11.00
2017-04-24T09:28:52.437Z,10.80
2017-04-24T09:29:52.973Z,10.70
2017-04-24T09:30:52.777Z,10.80
2017-04-24T09:31:52.541Z,10.70
2017-04-24T09:32:52.342Z,10.90
2017-04-24T09:33:52.542Z,10.80
2017-04-24T09:34:52.309Z,10.80
2017-04-24T09:35:52.113Z,10.30
2017-04-24T09:36:51.865Z,10.00
2017-04-24T09:37:51.670Z,10.40
2017-04-24T09:38:52.166Z,10.60
2017-04-24T09:39:51.933Z,10.50
2017-04-24T09:40:51.789Z,10.40
2017-04-24T09:42:51.954Z,10.20
2017-04-24T09:43:51.881Z,10.20
2017-04-24T09:44:51.629Z,10.20
2017-04-24T09:45:52.193Z,10.30
2017-04-24T09:46:51.922Z,10.10
2017-04-24T09:48:52.233Z,10.60
2017-04-24T09:49:52.489Z,10.70
2017-04-24T09:50:52.262Z,10.60
2017-04-24T09:51:52.233Z,10.50
2017-04-24T09:52:52.033Z,10.60
2017-04-24T09:53:51.797Z,11.00
2017-04-24T09:54:51.565Z,11.30
2017-04-24T09:55:51.345Z,11.50
2017-04-24T09:56:51.101Z,11.60
2017-04-24T09:57:51.641Z,11.60
2017-04-24T09:58:51.552Z,11.40
2017-04-24T09:59:51.364Z,11.10
2017-04-24T10:00:51.154Z,10.80
2017-04-24T10:01:50.905Z,11.10
2017-04-24T10:02:50.684Z,11.20
2017-04-24T10:03:50.497Z,11.10
2017-04-24T10:04:50.277Z,11.10
2017-04-24T10:05:50.053Z,10.60
2017-04-24T10:06:49.817Z,10.60
2017-04-24T10:07:50.413Z,10.60
2017-04-24T10:08:50.189Z,10.60
2017-04-24T10:09:50.027Z,10.70
2017-04-24T10:10:50.394Z,10.70
2017-04-24T10:11:50.181Z,10.50
2017-04-24T10:12:49.181Z,10.50
2017-04-24T10:13:49.133Z,10.80
2017-04-24T10:14:48.874Z,11.20
2017-04-24T10:15:48.688Z,11.20
2017-04-24T10:16:48.461Z,11.10
2017-04-24T10:17:48.969Z,11.10
2017-04-24T10:18:49.497Z,10.90
2017-04-24T10:19:50.093Z,11.00
2017-04-24T10:20:49.927Z,11.10
2017-04-24T10:21:49.692Z,11.10
2017-04-24T10:22:49.472Z,11.20
2017-04-24T10:23:49.282Z,11.50
2017-04-24T10:24:49.053Z,11.70
2017-04-24T10:25:48.972Z,11.90
2017-04-24T10:26:49.473Z,12.00
2017-04-24T10:27:49.253Z,11.80
2017-04-24T10:28:49.752Z,11.60
2017-04-24T10:29:49.613Z,11.80
2017-04-24T10:30:50.132Z,11.70
2017-04-24T10:31:49.900Z,11.60
2017-04-24T10:32:49.633Z,11.80
2017-04-24T10:33:49.408Z,12.00
2017-04-24T10:34:49.177Z,12.00
2017-04-24T10:35:48.970Z,11.80
2017-04-24T10:36:49.324Z,11.70
2017-04-24T10:37:49.081Z,11.70
2017-04-24T10:38:48.884Z,11.50
2017-04-24T10:39:48.652Z,11.60
2017-04-24T10:40:48.397Z,11.60
2017-04-24T10:41:48.929Z,11.80
2017-04-24T10:42:49.445Z,11.80
2017-04-24T10:43:49.994Z,11.80
2017-04-24T10:44:49.760Z,11.90
2017-04-24T10:45:50.289Z,11.90
2017-04-24T10:46:50.048Z,12.10
2017-04-24T10:47:49.784Z,12.10
2017-04-24T10:48:50.309Z,12.20
2017-04-24T10:49:50.868Z,11.80
2017-04-24T10:50:51.365Z,11.90
2017-04-24T10:51:51.129Z,12.00
2017-04-24T10:52:50.893Z,12.20
2017-04-24T10:53:50.772Z,12.10
2017-04-24T10:54:50.592Z,11.90
2017-04-24T10:55:50.369Z,12.10
2017-04-24T10:56:50.148Z,12.10
2017-04-24T10:57:49.908Z,11.70
2017-04-24T10:58:49.668Z,11.60
2017-04-24T10:59:50.224Z,11.80
2017-04-24T11:00:49.972Z,12.20
2017-04-24T11:01:50.529Z,12.40
2017-04-24T11:02:50.636Z,12.60
2017-04-24T11:03:50.439Z,12.70
2017-04-24T11:04:50.232Z,12.50
2017-04-24T11:05:49.989Z,12.40
2017-04-24T11:06:49.812Z,12.20
2017-04-24T11:07:49.560Z,12.30
2017-04-24T11:08:49.340Z,12.50
2017-04-24T11:09:49.160Z,12.60
2017-04-24T11:10:48.948Z,12.90
2017-04-24T11:11:48.692Z,12.80
2017-04-24T11:12:48.459Z,12.60
2017-04-24T11:13:48.265Z,12.70
2017-04-24T11:14:48.028Z,12.70
2017-04-24T11:15:47.840Z,12.80
2017-04-24T11:16:48.116Z,13.20
2017-04-24T11:17:47.904Z,13.00
2017-04-24T11:18:47.704Z,12.80
2017-04-24T11:19:47.584Z,12.90
2017-04-24T11:20:47.372Z,13.10
2017-04-24T11:21:47.180Z,13.40
2017-04-24T11:22:46.988Z,13.30
2017-04-24T11:23:46.767Z,13.30
2017-04-24T11:24:46.550Z,13.40
2017-04-24T11:25:47.104Z,13.30
2017-04-24T11:26:46.932Z,13.20
2017-04-24T11:27:46.734Z,13.30
2017-04-24T11:28:46.484Z,13.10
2017-04-24T11:29:46.260Z,13.00
2017-04-24T11:30:46.062Z,13.00
2017-04-24T11:31:45.916Z,13.10
2017-04-24T11:32:45.732Z,13.20
2017-04-24T11:33:45.552Z,13.40
2017-04-24T11:34:45.365Z,13.40
2017-04-24T11:35:45.160Z,13.80
2017-04-24T11:36:44.992Z,13.70
2017-04-24T11:37:45.552Z,13.60
2017-04-24T11:38:45.397Z,13.80
2017-04-24T11:39:45.188Z,13.80
2017-04-24T11:40:44.996Z,13.60
2017-04-24T11:41:44.832Z,13.60
2017-04-24T11:42:44.688Z,13.70
2017-04-24T11:43:44.464Z,13.70
2017-04-24T11:44:44.224Z,13.70
2017-04-24T11:45:45.160Z,14.00
2017-04-24T11:46:45.740Z,14.00
2017-04-24T11:47:45.580Z,14.00
2017-04-24T11:48:45.356Z,13.90
2017-04-24T11:49:45.141Z,14.00
2017-04-24T11:50:45.148Z,13.70
2017-04-24T11:51:44.946Z,13.80
2017-04-24T11:52:44.752Z,13.70
2017-04-24T11:53:44.564Z,13.20
2017-04-24T11:54:44.366Z,13.00
2017-04-24T11:55:44.191Z,13.20
2017-04-24T11:56:43.971Z,13.40
2017-04-24T11:57:43.728Z,13.70
2017-04-24T11:58:44.313Z,14.00
2017-04-24T11:59:44.960Z,13.70
2017-04-24T12:00:44.883Z,13.50
2017-04-24T12:01:45.444Z,13.50
2017-04-24T12:02:46.017Z,13.50
2017-04-24T12:03:45.858Z,13.80
2017-04-24T12:04:45.644Z,14.00
2017-04-24T12:05:45.447Z,14.00
2017-04-24T12:06:45.244Z,14.10
2017-04-24T12:07:45.456Z,14.00
2017-04-24T12:08:45.273Z,13.90
2017-04-24T12:09:45.207Z,14.20
2017-04-24T12:10:45.007Z,13.90
2017-04-24T12:11:45.512Z,13.70
2017-04-24T12:12:46.009Z,13.80
2017-04-24T12:13:45.792Z,13.80
2017-04-24T12:14:45.563Z,13.80
2017-04-24T12:15:45.356Z,13.80
2017-04-24T12:16:45.123Z,13.90
2017-04-24T12:17:45.691Z,14.00
2017-04-24T12:18:45.523Z,13.70
2017-04-24T12:19:45.336Z,13.60
2017-04-24T12:20:45.312Z,13.70
2017-04-24T12:21:45.248Z,14.00
2017-04-24T12:22:45.040Z,14.10
2017-04-24T12:23:44.835Z,14.20
2017-04-24T12:24:44.628Z,14.10
2017-04-24T12:25:44.427Z,14.20
2017-04-24T12:26:44.207Z,14.10
2017-04-24T12:27:44.008Z,14.20
2017-04-24T12:28:43.784Z,14.40
2017-04-24T12:29:44.352Z,14.20
2017-04-24T12:30:44.136Z,14.10
2017-04-24T12:31:43.967Z,14.40
2017-04-24T12:32:46.415Z,14.40
2017-04-24T12:33:46.228Z,14.20
2017-04-24T12:34:46.047Z,14.30
2017-04-24T12:35:45.844Z,14.10
2017-04-24T12:36:45.619Z,14.20
2017-04-24T12:37:45.404Z,14.20
2017-04-24T12:38:45.204Z,13.90
2017-04-24T12:39:45.028Z,13.70
2017-04-24T12:40:44.855Z,14.00
2017-04-24T12:41:44.703Z,14.20
2017-04-24T12:42:44.887Z,14.00
2017-04-24T12:43:44.679Z,14.10
2017-04-24T12:44:44.435Z,14.30
2017-04-24T12:45:44.264Z,14.60
2017-04-24T12:46:44.031Z,14.60
2017-04-24T12:47:43.822Z,14.80
2017-04-24T12:48:44.359Z,14.70
2017-04-24T12:49:44.208Z,14.90
2017-04-24T12:51:44.763Z,15.10
2017-04-24T12:52:45.287Z,15.30
2017-04-24T12:53:45.091Z,15.10
2017-04-24T12:54:44.888Z,15.20
2017-04-24T12:55:45.455Z,15.10
2017-04-24T12:56:45.463Z,15.20
2017-04-24T12:57:45.260Z,15.20
2017-04-24T12:58:45.072Z,15.10
2017-04-24T12:59:44.823Z,15.10
2017-04-24T13:00:44.695Z,15.30
2017-04-24T13:01:44.571Z,15.50
2017-04-24T13:02:44.367Z,15.50
2017-04-24T13:03:44.212Z,15.40
2017-04-24T13:04:44.763Z,15.40
2017-04-24T13:05:44.779Z,15.00
2017-04-24T13:06:44.591Z,14.90
2017-04-24T13:07:44.384Z,15.20
2017-04-24T13:08:44.151Z,15.40
2017-04-24T13:09:43.947Z,15.50
2017-04-24T13:10:44.919Z,15.50
2017-04-24T13:11:44.686Z,15.20
2017-04-24T13:12:45.234Z,14.90
2017-04-24T13:13:45.260Z,15.10
2017-04-24T13:14:45.019Z,15.10
2017-04-24T13:15:44.790Z,15.30